Time;durP1;ratioP1;P1;durP2;ratioP2;P2;SDS_P1;SDS_P2;PMS_P1;PMS_P2;Temp;Humidity;BMP_temperature;BMP_pressure;BME280_temperature;BME280_humidity;BME280_pressure;Samples;Min_cycle;Max_cycle;Signal;HPM_P1;HPM_P2
2022/03/24 00:02:11;;;;;;;39.65;32.20;;;1.80;99.90;;;;;;5059653;28;20422;-82
2022/03/24 00:04:36;;;;;;;40.67;32.42;;;2.00;99.90;;;;;;5059438;28;20422;-82
2022/03/24 00:07:02;;;;;;;39.33;31.93;;;2.00;99.90;;;;;;5057577;28;20396;-83
2022/03/24 00:09:28;;;;;;;40.67;32.92;;;1.90;99.90;;;;;;5059126;28;20392;-83
2022/03/24 00:11:55;;;;;;;42.08;33.80;;;1.80;99.90;;;;;;5059806;28;20435;-82
2022/03/24 00:14:21;;;;;;;42.83;32.30;;;1.90;99.90;;;;;;5057795;28;20397;-82
2022/03/24 00:16:47;;;;;;;41.67;33.13;;;1.90;99.90;;;;;;5058541;28;20372;-81
2022/03/24 00:19:13;;;;;;;41.13;32.75;;;1.90;99.90;;;;;;5058687;28;20889;-82
2022/03/24 00:21:38;;;;;;;41.87;33.03;;;1.80;99.90;;;;;;5058239;28;20407;-83
2022/03/24 00:24:04;;;;;;;43.67;33.23;;;1.70;99.90;;;;;;5060137;28;20414;-82
2022/03/24 00:26:30;;;;;;;39.20;32.07;;;1.70;99.90;;;;;;5059582;28;20784;-82
2022/03/24 00:28:56;;;;;;;39.77;31.77;;;1.50;99.90;;;;;;5059763;28;20423;-83
2022/03/24 00:31:21;;;;;;;39.10;31.57;;;1.40;99.90;;;;;;5058237;28;20939;-82
2022/03/24 00:33:47;;;;;;;37.47;31.35;;;1.30;99.90;;;;;;5058856;28;20401;-83
2022/03/24 00:36:14;;;;;;;38.55;30.17;;;1.20;99.90;;;;;;5060919;28;20443;-83
2022/03/24 00:38:40;;;;;;;37.97;30.90;;;1.20;99.90;;;;;;5059208;28;20388;-82
2022/03/24 00:41:06;;;;;;;42.90;33.23;;;1.20;99.90;;;;;;5057373;28;20376;-83
2022/03/24 00:43:32;;;;;;;40.47;32.47;;;1.30;99.90;;;;;;5058297;28;20407;-81
2022/03/24 00:45:58;;;;;;;37.75;31.48;;;1.30;99.90;;;;;;5058300;28;20746;-83
2022/03/24 00:48:25;;;;;;;40.95;32.05;;;1.20;99.90;;;;;;5060318;28;20388;-83
2022/03/24 00:50:52;;;;;;;42.97;33.97;;;1.10;99.90;;;;;;5063284;28;20402;-82
2022/03/24 00:53:17;;;;;;;43.50;33.65;;;1.00;99.90;;;;;;5062379;28;20383;-83
2022/03/24 00:55:43;;;;;;;42.20;33.40;;;0.90;99.90;;;;;;5060087;28;20999;-83
2022/03/24 00:58:10;;;;;;;39.63;32.60;;;0.70;99.90;;;;;;5055167;28;20380;-83
2022/03/24 01:00:37;;;;;;;42.37;33.07;;;0.70;99.90;;;;;;5057648;28;20392;-84
2022/03/24 01:03:06;;;;;;;41.10;33.40;;;0.80;99.90;;;;;;5056376;28;20392;-83
2022/03/24 01:05:37;;;;;;;43.15;34.20;;;0.90;99.90;;;;;;5056042;28;20391;-82
2022/03/24 01:08:05;;;;;;;40.83;32.57;;;0.80;99.90;;;;;;5056763;28;20423;-83
2022/03/24 01:10:32;;;;;;;39.13;32.15;;;0.80;99.90;;;;;;5055992;28;20388;-83
2022/03/24 01:12:59;;;;;;;41.25;32.80;;;0.70;99.90;;;;;;5057116;28;20388;-83
2022/03/24 01:15:27;;;;;;;38.17;31.20;;;0.60;99.90;;;;;;5056052;28;20380;-83
2022/03/24 01:17:53;;;;;;;40.42;32.38;;;0.60;99.90;;;;;;5055754;28;20415;-82
2022/03/24 01:20:19;;;;;;;38.63;31.77;;;0.50;99.90;;;;;;5055998;28;20731;-83
2022/03/24 01:22:45;;;;;;;40.00;32.17;;;0.40;99.90;;;;;;5055036;28;20757;-83
2022/03/24 01:25:12;;;;;;;38.45;32.03;;;0.40;99.90;;;;;;5056623;28;20455;-83
2022/03/24 01:27:41;;;;;;;42.03;32.78;;;0.40;99.90;;;;;;5057385;28;20384;-83
2022/03/24 01:30:09;;;;;;;42.95;34.03;;;0.30;99.90;;;;;;5056685;28;20376;-83
2022/03/24 01:32:35;;;;;;;38.40;32.28;;;0.30;99.90;;;;;;5056809;28;20414;-84
2022/03/24 01:35:03;;;;;;;42.28;33.38;;;0.20;99.90;;;;;;5054136;28;20962;-83
2022/03/24 01:37:28;;;;;;;38.17;31.92;;;0.20;99.90;;;;;;5055836;28;20391;-83
2022/03/24 01:39:54;;;;;;;39.15;32.78;;;0.20;99.90;;;;;;5054702;28;20444;-84
2022/03/24 01:42:20;;;;;;;40.65;33.17;;;0.10;99.90;;;;;;5055487;28;20465;-83
2022/03/24 01:44:47;;;;;;;41.65;33.05;;;0.10;99.90;;;;;;5056021;28;20482;-82
2022/03/24 01:47:14;;;;;;;44.37;33.53;;;0.10;99.90;;;;;;5054770;28;20387;-84
2022/03/24 01:49:42;;;;;;;44.05;34.83;;;0.10;99.90;;;;;;5056015;28;20406;-83
2022/03/24 01:52:10;;;;;;;43.83;34.22;;;0.30;99.90;;;;;;5053796;28;20409;-83
2022/03/24 01:54:38;;;;;;;41.40;33.30;;;0.30;99.90;;;;;;5054046;28;20391;-83
2022/03/24 01:57:05;;;;;;;39.83;33.27;;;0.20;99.90;;;;;;5053386;28;20482;-83
2022/03/24 01:59:32;;;;;;;44.20;34.92;;;0.10;99.90;;;;;;5054055;28;20438;-83
2022/03/24 02:01:57;;;;;;;43.47;34.72;;;0.00;99.90;;;;;;5056111;28;20730;-84
2022/03/24 02:04:23;;;;;;;40.53;33.60;;;0.00;99.90;;;;;;5053549;28;20411;-83
2022/03/24 02:06:49;;;;;;;44.30;33.03;;;-0.20;99.90;;;;;;5053813;28;22610;-83
2022/03/24 02:09:15;;;;;;;44.07;34.57;;;-0.20;99.90;;;;;;5054093;28;20380;-83
2022/03/24 02:11:41;;;;;;;42.13;34.05;;;-0.10;99.90;;;;;;5055060;28;20465;-83
2022/03/24 02:14:07;;;;;;;42.92;33.97;;;-0.20;99.90;;;;;;5062391;28;20372;-83
2022/03/24 02:16:38;;;;;;;44.03;34.35;;;-0.30;99.90;;;;;;5060661;28;20477;-83
2022/03/24 02:19:11;;;;;;;44.37;34.80;;;-0.30;99.90;;;;;;5056006;28;20496;-83
2022/03/24 02:21:40;;;;;;;47.38;36.80;;;-0.40;99.90;;;;;;5053791;28;20399;-83
2022/03/24 02:24:07;;;;;;;45.10;35.92;;;-0.40;99.90;;;;;;5055209;28;20470;-83
2022/03/24 02:26:35;;;;;;;45.20;35.05;;;-0.40;99.90;;;;;;5054900;28;20388;-82
2022/03/24 02:29:06;;;;;;;43.47;34.55;;;-0.50;99.90;;;;;;5056077;28;20432;-83
2022/03/24 02:31:39;;;;;;;47.25;37.17;;;-0.50;99.90;;;;;;5053533;28;20955;-83
2022/03/24 02:36:55;;;;;;;49.05;37.70;;;-0.50;99.90;;;;;;5034301;28;20393;-83
2022/03/24 02:39:21;;;;;;;48.83;38.53;;;-0.60;99.90;;;;;;5034034;28;20376;-83
2022/03/24 02:41:51;;;;;;;46.70;37.33;;;-0.60;99.90;;;;;;5052885;28;20475;-83
2022/03/24 02:44:17;;;;;;;46.47;37.50;;;-0.40;99.90;;;;;;5036265;28;20483;-83
2022/03/24 02:46:50;;;;;;;47.83;36.97;;;-0.50;99.90;;;;;;5052600;28;20471;-84
2022/03/24 02:49:22;;;;;;;44.80;37.40;;;-0.50;99.90;;;;;;5052394;28;20380;-84
2022/03/24 02:51:50;;;;;;;47.97;39.25;;;-0.50;99.90;;;;;;5051911;28;20415;-84
2022/03/24 02:54:16;;;;;;;49.07;39.60;;;-0.40;99.90;;;;;;5053358;28;20398;-83
2022/03/24 02:56:42;;;;;;;48.08;37.33;;;-0.50;99.90;;;;;;5054915;28;20438;-84
2022/03/24 02:59:10;;;;;;;49.67;37.90;;;-0.70;99.90;;;;;;5051616;28;20463;-83
2022/03/24 03:01:38;;;;;;;46.83;37.20;;;-0.70;99.90;;;;;;5053339;28;20392;-83
2022/03/24 03:04:07;;;;;;;48.33;37.78;;;-0.70;99.90;;;;;;5051874;28;20793;-83
2022/03/24 03:06:33;;;;;;;47.67;38.08;;;-0.80;99.90;;;;;;5052147;28;20404;-83
2022/03/24 03:09:01;;;;;;;44.72;36.33;;;-0.80;99.90;;;;;;5052289;28;20388;-84
2022/03/24 03:11:32;;;;;;;48.17;37.17;;;-0.90;99.90;;;;;;5051916;28;20399;-84
2022/03/24 03:13:59;;;;;;;44.83;36.50;;;-0.90;99.90;;;;;;5052599;28;20406;-84
2022/03/24 03:16:25;;;;;;;51.97;37.65;;;-0.90;99.90;;;;;;5052644;28;20395;-83
2022/03/24 03:18:51;;;;;;;50.40;37.45;;;-1.00;99.90;;;;;;5051268;28;20372;-83
2022/03/24 03:21:17;;;;;;;48.10;37.42;;;-1.00;99.90;;;;;;5052733;28;20392;-83
2022/03/24 03:23:44;;;;;;;48.45;37.95;;;-1.10;99.90;;;;;;5052465;28;20395;-84
2022/03/24 03:26:11;;;;;;;45.07;36.13;;;-1.00;99.90;;;;;;5055975;28;20376;-83
2022/03/24 03:28:37;;;;;;;49.35;37.70;;;-1.10;99.90;;;;;;5056816;28;20376;-83
2022/03/24 03:31:03;;;;;;;49.17;37.28;;;-1.00;99.90;;;;;;5051418;28;20415;-82
2022/03/24 03:33:29;;;;;;;48.17;37.35;;;-1.10;99.90;;;;;;5056548;28;20403;-83
2022/03/24 03:35:55;;;;;;;49.47;37.60;;;-1.10;99.90;;;;;;5054332;28;20404;-85
2022/03/24 03:38:21;;;;;;;46.08;36.90;;;-1.20;99.90;;;;;;5054071;28;20380;-83
2022/03/24 03:40:47;;;;;;;47.70;38.15;;;-1.20;99.90;;;;;;5051426;28;20402;-83
2022/03/24 03:43:14;;;;;;;47.30;38.58;;;-1.20;99.90;;;;;;5053000;28;20422;-84
2022/03/24 03:45:41;;;;;;;50.67;39.50;;;-1.30;99.90;;;;;;5053058;28;20383;-83
2022/03/24 03:48:07;;;;;;;49.47;39.70;;;-1.20;99.90;;;;;;5051753;28;20870;-84
2022/03/24 03:50:33;;;;;;;51.78;39.80;;;-1.30;99.90;;;;;;5052735;28;20391;-84
2022/03/24 03:53:00;;;;;;;49.22;39.40;;;-1.30;99.90;;;;;;5050386;28;20402;-84
2022/03/24 03:55:27;;;;;;;48.22;39.40;;;-1.30;99.90;;;;;;5052004;28;20392;-83
2022/03/24 03:57:53;;;;;;;49.27;39.03;;;-1.40;99.90;;;;;;5051768;28;20387;-83
2022/03/24 04:03:04;;;;;;;51.78;39.45;;;-1.40;99.90;;;;;;5033461;28;20463;-85
2022/03/24 04:05:33;;;;;;;53.45;41.03;;;-1.50;99.90;;;;;;5036935;28;20391;-85
2022/03/24 04:08:01;;;;;;;51.95;40.63;;;-1.50;99.90;;;;;;5052218;28;20919;-84
2022/03/24 04:10:27;;;;;;;54.45;40.42;;;-1.50;99.90;;;;;;5051597;28;20474;-84
2022/03/24 04:12:55;;;;;;;56.57;42.47;;;-1.50;99.90;;;;;;5054041;28;20474;-84
2022/03/24 04:15:22;;;;;;;57.15;43.13;;;-1.50;99.90;;;;;;5055455;28;20384;-84
2022/03/24 04:17:48;;;;;;;54.72;41.60;;;-1.60;99.90;;;;;;5053390;28;20372;-84
2022/03/24 04:20:20;;;;;;;53.78;41.90;;;-1.60;99.90;;;;;;5052006;28;20403;-83
2022/03/24 04:22:50;;;;;;;53.22;41.35;;;-1.60;99.90;;;;;;5052559;28;20491;-83
2022/03/24 04:25:20;;;;;;;55.22;41.35;;;-1.70;99.90;;;;;;5053048;28;20383;-83
2022/03/24 04:27:46;;;;;;;55.80;42.28;;;-1.70;99.90;;;;;;5053541;28;20882;-84
2022/03/24 04:30:12;;;;;;;58.23;42.53;;;-1.70;99.90;;;;;;5054554;28;20402;-84
2022/03/24 04:32:41;;;;;;;62.33;41.67;;;-1.70;99.90;;;;;;5054438;28;20530;-83
2022/03/24 04:35:08;;;;;;;79.38;43.90;;;-1.60;99.90;;;;;;5058029;28;20388;-83
2022/03/24 04:37:35;;;;;;;75.45;41.58;;;-1.80;99.90;;;;;;5057701;28;20412;-84
2022/03/24 04:40:01;;;;;;;78.05;40.78;;;-1.80;99.90;;;;;;5058867;28;20384;-83
2022/03/24 04:42:27;;;;;;;78.18;41.80;;;-1.80;99.90;;;;;;5057815;28;20387;-83
2022/03/24 04:44:53;;;;;;;68.60;40.88;;;-1.80;99.90;;;;;;5057589;28;20376;-83
2022/03/24 04:47:19;;;;;;;65.13;42.20;;;-1.90;99.90;;;;;;5057659;28;20455;-84
2022/03/24 04:49:45;;;;;;;294.60;65.57;;;-1.90;99.90;;;;;;5058020;28;20399;-84
2022/03/24 04:52:12;;;;;;;182.10;54.25;;;-1.90;99.90;;;;;;5059535;28;20399;-83
2022/03/24 04:54:38;;;;;;;66.22;42.35;;;-1.90;99.90;;;;;;5060391;28;20403;-84
2022/03/24 04:57:04;;;;;;;57.78;39.38;;;-1.80;99.90;;;;;;5057427;28;20741;-83
2022/03/24 04:59:29;;;;;;;57.03;39.73;;;-1.70;99.90;;;;;;5057834;28;20402;-82
2022/03/24 05:01:58;;;;;;;57.00;41.20;;;-1.70;99.90;;;;;;5058774;28;20443;-83
2022/03/24 05:04:24;;;;;;;55.53;40.87;;;-1.80;99.90;;;;;;5058261;28;20410;-83
2022/03/24 05:06:52;;;;;;;62.88;42.45;;;-1.70;99.90;;;;;;5058002;28;20380;-85
2022/03/24 05:09:18;;;;;;;56.07;39.50;;;-1.80;99.90;;;;;;5054593;28;20400;-84
2022/03/24 05:11:44;;;;;;;53.63;40.27;;;-1.80;99.90;;;;;;5058021;28;20476;-84
2022/03/24 05:14:10;;;;;;;50.38;39.75;;;-1.80;99.90;;;;;;5057867;28;20391;-84
2022/03/24 05:16:36;;;;;;;53.73;40.40;;;-1.90;99.90;;;;;;5055612;28;20376;-84
2022/03/24 05:19:03;;;;;;;54.33;39.73;;;-1.90;99.90;;;;;;5057892;28;20416;-84
2022/03/24 05:21:29;;;;;;;57.67;42.30;;;-1.90;99.90;;;;;;5057531;28;20376;-83
2022/03/24 05:23:55;;;;;;;61.83;41.50;;;-1.90;99.90;;;;;;5057707;28;20415;-84
2022/03/24 05:26:23;;;;;;;58.13;39.97;;;-1.90;99.90;;;;;;5058565;28;20398;-84
2022/03/24 05:28:53;;;;;;;67.20;44.28;;;-1.80;99.90;;;;;;5056909;28;20783;-84
2022/03/24 05:31:23;;;;;;;63.95;42.47;;;-1.80;99.90;;;;;;5057015;28;20414;-84
2022/03/24 05:33:50;;;;;;;78.45;45.55;;;-1.70;99.90;;;;;;5056229;28;20400;-84
2022/03/24 05:36:16;;;;;;;66.68;40.40;;;-1.70;99.90;;;;;;5056375;28;20407;-84
2022/03/24 05:38:41;;;;;;;62.60;41.15;;;-1.60;99.90;;;;;;5063085;28;20378;-84
2022/03/24 05:41:13;;;;;;;61.30;41.43;;;-1.60;99.90;;;;;;5062064;28;20741;-85
2022/03/24 05:43:39;;;;;;;60.53;43.50;;;-1.40;99.90;;;;;;5061113;28;20909;-84
2022/03/24 05:46:05;;;;;;;62.75;41.67;;;-1.30;99.90;;;;;;5058761;28;20878;-84
2022/03/24 05:48:33;;;;;;;72.57;45.88;;;-1.10;99.90;;;;;;5056590;28;20526;-84
2022/03/24 05:51:00;;;;;;;60.60;43.42;;;-1.00;99.90;;;;;;5056707;28;20470;-83
2022/03/24 05:53:25;;;;;;;60.47;40.38;;;-1.00;99.90;;;;;;5055792;28;20862;-83
2022/03/24 05:55:52;;;;;;;49.58;36.55;;;-0.80;99.90;;;;;;5055069;28;20415;-83
2022/03/24 05:58:17;;;;;;;57.88;37.58;;;-0.60;99.90;;;;;;5058168;28;20447;-85
2022/03/24 06:00:43;;;;;;;49.40;37.10;;;-0.40;99.90;;;;;;5058459;28;20412;-83
2022/03/24 06:03:09;;;;;;;48.17;34.90;;;-0.20;99.90;;;;;;5057230;28;20368;-83
2022/03/24 06:05:36;;;;;;;46.37;36.27;;;0.00;99.90;;;;;;5055241;28;20832;-84
2022/03/24 06:08:03;;;;;;;46.70;35.10;;;0.20;99.90;;;;;;5050396;28;20485;-84
2022/03/24 06:10:31;;;;;;;45.92;35.78;;;0.50;99.90;;;;;;5053925;28;20393;-85
2022/03/24 06:13:00;;;;;;;129.88;43.90;;;0.70;99.90;;;;;;5038356;28;20440;-85
2022/03/24 06:15:25;;;;;;;92.85;39.83;;;0.90;99.90;;;;;;5050112;28;20380;-85
2022/03/24 06:17:51;;;;;;;81.47;38.00;;;1.10;99.90;;;;;;5036589;28;20389;-84
2022/03/24 06:20:17;;;;;;;102.38;45.00;;;1.30;99.90;;;;;;5038901;28;20496;-84
2022/03/24 06:22:51;;;;;;;90.35;44.47;;;1.50;99.90;;;;;;5038534;28;20396;-86
2022/03/24 06:25:19;;;;;;;83.57;41.00;;;1.60;99.90;;;;;;5042013;28;20894;-84
2022/03/24 06:27:50;;;;;;;57.60;37.95;;;1.80;99.90;;;;;;5039009;28;20411;-83
2022/03/24 06:30:16;;;;;;;62.55;39.03;;;2.00;99.90;;;;;;5038115;28;21401;-84
2022/03/24 06:32:42;;;;;;;55.72;39.40;;;2.10;99.90;;;;;;5036800;28;20432;-84
2022/03/24 06:35:08;;;;;;;51.90;38.50;;;2.30;99.90;;;;;;5039379;28;20441;-84
2022/03/24 06:37:39;;;;;;;49.67;39.08;;;2.40;99.90;;;;;;5048076;28;20403;-85
2022/03/24 06:40:10;;;;;;;57.95;39.30;;;2.60;99.90;;;;;;5045737;28;20396;-85
2022/03/24 06:42:38;;;;;;;54.90;38.83;;;2.80;99.90;;;;;;5038629;28;20382;-84
2022/03/24 06:45:06;;;;;;;144.85;49.72;;;3.10;99.90;;;;;;5040456;28;20520;-84
2022/03/24 06:47:32;;;;;;;56.08;38.13;;;3.40;99.90;;;;;;5035238;28;20397;-84
2022/03/24 06:49:58;;;;;;;190.27;51.35;;;3.60;99.90;;;;;;5040482;28;20471;-84
2022/03/24 06:52:24;;;;;;;81.00;41.80;;;3.80;99.90;;;;;;5054840;28;20446;-84
2022/03/24 06:54:49;;;;;;;88.87;43.00;;;4.00;99.90;;;;;;5053653;28;20387;-83
2022/03/24 06:57:15;;;;;;;67.53;40.63;;;4.20;99.90;;;;;;5051563;28;20387;-83
2022/03/24 06:59:41;;;;;;;78.15;41.47;;;4.50;99.90;;;;;;5041282;28;20416;-84
2022/03/24 07:02:07;;;;;;;70.32;43.38;;;4.70;99.90;;;;;;5041262;28;20403;-83
2022/03/24 07:04:36;;;;;;;66.40;42.00;;;4.90;99.90;;;;;;5043636;28;20389;-84
2022/03/24 07:07:03;;;;;;;67.95;41.35;;;4.90;99.90;;;;;;5042316;28;20385;-83
2022/03/24 07:09:29;;;;;;;61.35;41.28;;;5.10;99.90;;;;;;5044283;28;20963;-84
2022/03/24 07:11:55;;;;;;;58.00;43.70;;;5.50;99.90;;;;;;5043102;28;20413;-83
2022/03/24 07:14:21;;;;;;;60.20;42.93;;;5.70;99.90;;;;;;5043407;28;20496;-84
2022/03/24 07:16:47;;;;;;;54.80;42.00;;;5.80;99.90;;;;;;5044649;28;20385;-83
2022/03/24 07:19:13;;;;;;;53.20;43.63;;;6.20;99.90;;;;;;5044741;28;20389;-83
2022/03/24 07:21:38;;;;;;;53.28;41.50;;;6.40;99.90;;;;;;5045642;28;20372;-84
2022/03/24 07:24:04;;;;;;;49.80;41.33;;;6.40;99.90;;;;;;5047218;28;20390;-83
2022/03/24 07:26:31;;;;;;;62.88;43.45;;;5.40;99.90;;;;;;5043697;28;20410;-83
2022/03/24 07:28:57;;;;;;;50.53;42.33;;;6.70;99.90;;;;;;5048514;28;20397;-84
2022/03/24 07:31:23;;;;;;;51.35;41.83;;;6.80;99.90;;;;;;5043839;28;20403;-85
2022/03/24 07:33:51;;;;;;;51.97;42.15;;;6.90;99.90;;;;;;5047249;28;20908;-85
2022/03/24 07:36:22;;;;;;;54.13;42.08;;;7.10;99.90;;;;;;5044173;28;20421;-84
2022/03/24 07:38:52;;;;;;;51.50;43.67;;;7.10;99.90;;;;;;5043223;28;20391;-83
2022/03/24 07:41:18;;;;;;;52.97;42.00;;;7.20;99.90;;;;;;5049028;28;20370;-83
2022/03/24 07:43:45;;;;;;;71.90;43.90;;;7.20;99.90;;;;;;5047821;28;20766;-83
2022/03/24 07:46:11;;;;;;;52.42;41.78;;;7.30;99.90;;;;;;5045737;28;20393;-83
2022/03/24 07:48:38;;;;;;;61.90;43.47;;;7.30;99.90;;;;;;5044556;28;20379;-83
2022/03/24 07:51:09;;;;;;;54.53;41.80;;;7.40;99.90;;;;;;5045621;28;20429;-83
2022/03/24 07:53:43;;;;;;;51.45;40.92;;;7.70;99.90;;;;;;5051885;28;20447;-83
2022/03/24 07:56:09;;;;;;;76.82;44.33;;;8.10;99.90;;;;;;5041636;28;20398;-83
2022/03/24 07:58:36;;;;;;;53.45;42.72;;;8.40;99.90;;;;;;5048651;28;20391;-83
2022/03/24 08:01:02;;;;;;;51.17;41.72;;;8.30;99.90;;;;;;5046561;28;20385;-83
2022/03/24 08:03:28;;;;;;;54.50;43.45;;;8.60;99.90;;;;;;5040249;28;20889;-82
2022/03/24 08:05:53;;;;;;;47.30;40.38;;;8.50;99.90;;;;;;5039302;28;20377;-83
2022/03/24 08:08:20;;;;;;;53.35;39.75;;;8.60;99.90;;;;;;5045378;28;20425;-84
2022/03/24 08:10:48;;;;;;;53.05;40.95;;;9.00;99.90;;;;;;5045787;28;20393;-83
2022/03/24 08:13:16;;;;;;;50.40;40.30;;;9.20;99.90;;;;;;5055748;28;20377;-84
2022/03/24 08:15:43;;;;;;;50.30;39.88;;;9.30;99.90;;;;;;5050618;28;20382;-83
2022/03/24 08:18:10;;;;;;;54.47;42.90;;;9.40;99.90;;;;;;5048897;28;20390;-83
2022/03/24 08:20:37;;;;;;;47.30;38.90;;;9.50;99.90;;;;;;5039343;28;20456;-83
2022/03/24 08:23:04;;;;;;;50.95;40.28;;;9.70;99.90;;;;;;5047382;28;20393;-84
2022/03/24 08:25:31;;;;;;;46.53;38.22;;;9.90;99.90;;;;;;5050102;28;20375;-83
2022/03/24 08:27:57;;;;;;;49.47;38.03;;;10.00;99.90;;;;;;5054166;28;20415;-84
2022/03/24 08:30:23;;;;;;;67.20;39.78;;;10.20;99.90;;;;;;5050007;28;20368;-83
2022/03/24 08:32:49;;;;;;;47.45;38.25;;;10.20;99.90;;;;;;5047595;28;20516;-83
2022/03/24 08:35:15;;;;;;;47.90;36.95;;;10.20;99.90;;;;;;5051863;28;20363;-83
2022/03/24 08:37:41;;;;;;;47.00;37.72;;;10.20;99.90;;;;;;5051606;28;20930;-83
2022/03/24 08:40:13;;;;;;;48.63;38.00;;;10.30;99.90;;;;;;5051109;28;20396;-84
2022/03/24 08:42:40;;;;;;;42.85;36.30;;;10.50;99.60;;;;;;5048740;28;20411;-84
2022/03/24 08:45:10;;;;;;;80.97;38.75;;;10.70;99.90;;;;;;5054330;28;20376;-83
2022/03/24 08:47:37;;;;;;;43.88;34.72;;;11.10;99.30;;;;;;5049447;28;20803;-84
2022/03/24 08:50:05;;;;;;;46.77;36.07;;;11.80;99.90;;;;;;5048452;28;20415;-83
2022/03/24 08:52:31;;;;;;;43.58;35.30;;;11.30;96.80;;;;;;5053204;28;20411;-83
2022/03/24 08:54:57;;;;;;;45.88;34.80;;;11.20;97.30;;;;;;5052264;28;20492;-85
2022/03/24 08:57:26;;;;;;;43.63;36.08;;;11.10;97.50;;;;;;5033867;28;20414;-83
2022/03/24 09:00:07;;;;;;;47.60;35.03;;;11.20;96.70;;;;;;5049414;28;20719;-83
2022/03/24 09:02:33;;;;;;;40.97;33.70;;;11.60;96.50;;;;;;5050015;28;20388;-83
2022/03/24 09:04:58;;;;;;;46.27;35.93;;;11.60;96.70;;;;;;5047406;28;20468;-84
2022/03/24 09:07:24;;;;;;;55.90;36.08;;;11.60;96.30;;;;;;5049677;28;20380;-83
2022/03/24 09:09:50;;;;;;;41.37;34.90;;;11.60;95.60;;;;;;5051888;28;20431;-84
2022/03/24 09:12:16;;;;;;;46.42;35.42;;;11.70;95.50;;;;;;5045412;28;20426;-83
2022/03/24 09:14:42;;;;;;;45.13;34.00;;;11.80;94.90;;;;;;5049424;28;20372;-83
2022/03/24 09:17:08;;;;;;;74.05;36.55;;;12.00;95.10;;;;;;5049846;28;20879;-83
2022/03/24 09:19:35;;;;;;;42.95;31.27;;;12.30;94.50;;;;;;5047359;28;20880;-82
2022/03/24 09:22:06;;;;;;;38.58;31.45;;;12.30;93.90;;;;;;5034984;28;20381;-83
2022/03/24 09:24:33;;;;;;;41.25;31.48;;;12.50;94.20;;;;;;5050538;28;20452;-84
2022/03/24 09:26:59;;;;;;;36.47;30.45;;;12.90;99.50;;;;;;5049232;28;20383;-83
2022/03/24 09:29:25;;;;;;;37.55;30.60;;;13.20;91.90;;;;;;5045803;28;20396;-82
2022/03/24 09:31:52;;;;;;;39.30;29.23;;;;;;;;;;5051419;28;20422;-84
2022/03/24 09:34:20;;;;;;;44.58;29.92;;;;;;;;;;5056838;28;20406;-83
2022/03/24 09:36:48;;;;;;;36.58;29.08;;;;;;;;;;5052133;28;20559;-83
2022/03/24 09:39:16;;;;;;;38.05;28.40;;;;;;;;;;5042848;28;20373;-82
2022/03/24 09:41:46;;;;;;;40.88;29.60;;;;;;;;;;5044501;28;20384;-83
2022/03/24 09:44:12;;;;;;;33.50;27.50;;;;;;;;;;5048325;28;20384;-84
2022/03/24 09:46:39;;;;;;;36.53;28.63;;;;;;;;;;5051195;28;20373;-83
2022/03/24 09:49:05;;;;;;;33.95;27.70;;;;;;;;;;5048751;28;20379;-83
2022/03/24 09:51:31;;;;;;;31.83;26.75;;;;;;;;;;5048572;28;20409;-82
2022/03/24 09:53:59;;;;;;;32.10;25.65;;;;;;;;;;5050321;28;20810;-84
2022/03/24 09:56:25;;;;;;;36.97;27.15;;;;;;;;;;5046491;28;20374;-84
2022/03/24 09:58:51;;;;;;;31.15;25.95;;;;;;;;;;5050934;28;20373;-83
2022/03/24 10:01:17;;;;;;;38.92;27.42;;;;;;;;;;5049039;28;20653;-84
2022/03/24 10:04:02;;;;;;;31.95;25.58;;;;;;;;;;5047129;28;20391;-83
2022/03/24 10:06:29;;;;;;;31.20;24.67;;;;;;;;;;5050989;28;20380;-84
2022/03/24 10:08:57;;;;;;;25.95;21.42;;;;;;;;;;5054621;28;20387;-85
2022/03/24 10:11:25;;;;;;;28.25;22.58;;;;;;;;;;5052613;28;20474;-83
2022/03/24 10:13:54;;;;;;;29.67;23.10;;;;;;;;;;5054990;28;20478;-83
2022/03/24 10:16:33;;;;;;;28.03;23.37;;;;;;;;;;5051500;28;20386;-83
2022/03/24 10:19:02;;;;;;;29.05;22.23;;;;;;;;;;5048336;28;20458;-83
2022/03/24 10:21:29;;;;;;;29.80;22.58;;;;;;;;;;5049282;28;20917;-83
2022/03/24 10:23:57;;;;;;;29.33;22.25;;;;;;;;;;5043865;28;20371;-83
2022/03/24 10:26:38;;;;;;;29.50;22.05;;;;;;;;;;5045345;28;20448;-82
2022/03/24 10:29:04;;;;;;;25.83;21.25;;;;;;;;;;5048856;28;20372;-83
2022/03/24 10:31:35;;;;;;;31.67;21.10;;;;;;;;;;5048035;28;20400;-83
2022/03/24 10:34:01;;;;;;;26.90;20.60;;;;;;;;;;5051827;28;20402;-84
2022/03/24 10:36:27;;;;;;;41.88;20.95;;;;;;;;;;5046857;28;20401;-83
2022/03/24 10:38:56;;;;;;;179.60;33.37;;;;;;;;;;5047394;28;20379;-83
2022/03/24 10:41:30;;;;;;;29.42;19.98;;;;;;;;;;5044602;28;20399;-84
2022/03/24 10:44:02;;;;;;;27.50;19.35;;;;;;;;;;5051284;28;20992;-83
2022/03/24 10:46:29;;;;;;;25.42;17.80;;;;;;;;;;5051037;28;20449;-83
2022/03/24 10:48:55;;;;;;;24.25;17.15;;;;;;;;;;5048435;28;20455;-84
2022/03/24 10:51:31;;;;;;;23.87;16.43;;;15.50;74.30;;;;;;5046785;28;20459;-84
2022/03/24 10:54:13;;;;;;;19.25;14.65;;;;;;;;;;5048220;28;20417;-84
2022/03/24 10:56:44;;;;;;;20.42;15.27;;;;;;;;;;5048763;28;20374;-83
2022/03/24 10:59:11;;;;;;;20.20;15.05;;;;;;;;;;5044214;28;20396;-83
2022/03/24 11:01:38;;;;;;;19.58;14.30;;;;;;;;;;5045211;28;20392;-83
2022/03/24 11:04:04;;;;;;;18.88;14.07;;;;;;;;;;5044162;28;20440;-83
2022/03/24 11:06:30;;;;;;;20.58;15.38;;;;;;;;;;5044411;28;20455;-82
2022/03/24 11:09:00;;;;;;;18.50;14.57;;;;;;;;;;5041702;28;20393;-83
2022/03/24 11:11:27;;;;;;;19.80;15.03;;;;;;;;;;5042928;28;20412;-83
2022/03/24 11:13:57;;;;;;;18.85;14.65;;;;;;;;;;5043915;28;20942;-83
2022/03/24 11:16:27;;;;;;;19.40;14.80;;;;;;;;;;5044633;28;20396;-82
2022/03/24 11:18:59;;;;;;;20.20;14.63;;;;;;;;;;5041670;28;20388;-83
2022/03/24 11:21:40;;;;;;;18.42;14.20;;;;;;;;;;5042784;28;20396;-84
2022/03/24 11:24:07;;;;;;;18.20;14.10;;;;;;;;;;5045414;28;20412;-84
2022/03/24 11:26:35;;;;;;;19.30;12.80;;;;;;;;;;5043077;28;20427;-83
2022/03/24 11:29:04;;;;;;;19.00;13.85;;;;;;;;;;5043201;28;20382;-83
2022/03/24 11:31:31;;;;;;;17.52;13.43;;;;;;;;;;5044558;28;20409;-83
2022/03/24 11:34:01;;;;;;;19.88;15.48;;;;;;;;;;5044178;28;20472;-84
2022/03/24 11:36:28;;;;;;;19.50;14.38;;;;;;;;;;5042485;28;20428;-83
2022/03/24 11:38:57;;;;;;;18.27;14.05;;;;;;;;;;5043635;28;20429;-83
2022/03/24 11:41:25;;;;;;;19.33;14.82;;;;;;;;;;5043040;28;20389;-83
2022/03/24 11:43:54;;;;;;;16.77;13.27;;;;;;;;;;5045276;28;20398;-83
2022/03/24 11:46:27;;;;;;;18.45;14.23;;;;;;;;;;5047266;28;20372;-83
2022/03/24 11:49:11;;;;;;;17.80;14.63;;;;;;;;;;5047501;28;20386;-83
2022/03/24 11:51:37;;;;;;;17.15;12.82;;;;;;;;;;5048302;28;20439;-83
2022/03/24 11:54:05;;;;;;;18.77;13.45;;;;;;;;;;5046366;28;20389;-84
2022/03/24 11:56:33;;;;;;;16.92;13.32;;;;;;;;;;5044370;28;20459;-82
2022/03/24 11:59:00;;;;;;;18.35;13.77;;;;;;;;;;5046261;28;20960;-83
2022/03/24 12:01:32;;;;;;;18.35;13.85;;;;;;;;;;5046688;28;20438;-82
2022/03/24 12:04:04;;;;;;;20.73;14.95;;;;;;;;;;5048202;28;20374;-84
2022/03/24 12:06:43;;;;;;;19.88;15.38;;;;;;;;;;5048466;28;20386;-82
2022/03/24 12:09:13;;;;;;;19.55;14.40;;;;;;;;;;5047009;28;20399;-83
2022/03/24 12:11:39;;;;;;;17.70;13.63;;;;;;;;;;5046319;28;20973;-83
2022/03/24 12:14:07;;;;;;;19.25;14.15;;;;;;;;;;5046344;28;20483;-83
2022/03/24 12:16:36;;;;;;;19.65;14.55;;;;;;;;;;5046588;28;20396;-83
2022/03/24 12:19:02;;;;;;;17.40;14.07;;;;;;;;;;5046255;28;20366;-83
2022/03/24 12:21:29;;;;;;;19.10;13.75;;;;;;;;;;5047105;28;20435;-83
2022/03/24 12:24:16;;;;;;;17.98;13.98;;;;;;;;;;5046142;28;20383;-84
2022/03/24 12:26:48;;;;;;;18.75;13.27;;;;;;;;;;5047246;28;20398;-83
2022/03/24 12:29:15;;;;;;;74.10;19.35;;;;;;;;;;5050264;28;20417;-83
2022/03/24 12:31:54;;;;;;;18.75;14.23;;;;;;;;;;5051820;28;20412;-84
2022/03/24 12:34:21;;;;;;;35.80;15.75;;;;;;;;;;5046941;28;20770;-83
2022/03/24 12:36:47;;;;;;;20.33;14.10;;;;;;;;;;5047144;28;20881;-83
2022/03/24 12:39:29;;;;;;;16.65;13.38;;;;;;;;;;5047171;28;20374;-83
2022/03/24 12:42:03;;;;;;;18.55;13.70;;;;;;;;;;5049583;28;20496;-84
2022/03/24 12:44:48;;;;;;;18.38;13.57;;;;;;;;;;5047549;28;20425;-83
2022/03/24 12:47:30;;;;;;;22.27;14.40;;;;;;;;;;5051859;28;20379;-83
2022/03/24 12:49:59;;;;;;;20.17;14.63;;;;;;;;;;5047220;28;20887;-84
2022/03/24 12:52:45;;;;;;;20.60;14.75;;;;;;;;;;5046260;28;20404;-82
2022/03/24 12:55:22;;;;;;;19.83;14.63;;;;;;;;;;5050223;28;20406;-84
2022/03/24 12:57:55;;;;;;;18.27;14.52;;;;;;;;;;5049231;28;20416;-83
2022/03/24 13:00:23;;;;;;;19.77;13.52;;;;;;;;;;5050312;28;20381;-83
2022/03/24 13:02:49;;;;;;;20.33;13.88;;;;;;;;;;5048122;28;20380;-82
2022/03/24 13:05:22;;;;;;;16.15;12.40;;;;;;;;;;5041740;28;20370;-83
2022/03/24 13:07:50;;;;;;;16.90;13.32;;;;;;;;;;5048829;28;20376;-83